sensor_id;sensor_type;location;lat;lon;timestamp;temperature;humidity
76577;DHT22;65441;44.748;37.600;2023-03-02T00:02:03;2.72;65.48
76577;DHT22;65441;44.748;37.600;2023-03-02T00:04:38;2.05;67.81
76577;DHT22;65441;44.748;37.600;2023-03-02T00:07:12;1.58;69.94
76577;DHT22;65441;44.748;37.600;2023-03-02T00:09:45;1.28;71.38
76577;DHT22;65441;44.748;37.600;2023-03-02T00:12:18;0.97;71.75
76577;DHT22;65441;44.748;37.600;2023-03-02T00:14:49;0.81;73.15
76577;DHT22;65441;44.748;37.600;2023-03-02T00:17:23;0.92;74.97
76577;DHT22;65441;44.748;37.600;2023-03-02T00:19:58;0.89;74.47
76577;DHT22;65441;44.748;37.600;2023-03-02T00:22:38;0.91;75.30
76577;DHT22;65441;44.748;37.600;2023-03-02T00:25:12;0.67;75.33
76577;DHT22;65441;44.748;37.600;2023-03-02T00:27:45;0.92;76.01
76577;DHT22;65441;44.748;37.600;2023-03-02T00:30:19;0.97;74.11
76577;DHT22;65441;44.748;37.600;2023-03-02T00:32:53;1.06;74.32
76577;DHT22;65441;44.748;37.600;2023-03-02T00:35:29;0.94;75.80
76577;DHT22;65441;44.748;37.600;2023-03-02T00:38:05;0.84;76.05
76577;DHT22;65441;44.748;37.600;2023-03-02T00:40:45;0.74;76.96
76577;DHT22;65441;44.748;37.600;2023-03-02T00:43:17;0.66;75.58
76577;DHT22;65441;44.748;37.600;2023-03-02T00:45:50;0.51;77.14
76577;DHT22;65441;44.748;37.600;2023-03-02T00:48:25;0.37;77.38
76577;DHT22;65441;44.748;37.600;2023-03-02T00:51:02;0.39;76.96
76577;DHT22;65441;44.748;37.600;2023-03-02T00:53:35;0.32;76.18
76577;DHT22;65441;44.748;37.600;2023-03-02T00:56:11;0.23;78.27
76577;DHT22;65441;44.748;37.600;2023-03-02T00:58:55;0.27;77.02
76577;DHT22;65441;44.748;37.600;2023-03-02T01:01:28;0.32;77.07
76577;DHT22;65441;44.748;37.600;2023-03-02T01:04:03;0.13;77.89
76577;DHT22;65441;44.748;37.600;2023-03-02T01:06:35;0.15;76.88
76577;DHT22;65441;44.748;37.600;2023-03-02T01:09:17;0.12;77.53
76577;DHT22;65441;44.748;37.600;2023-03-02T01:11:53;0.14;78.82
76577;DHT22;65441;44.748;37.600;2023-03-02T01:14:28;0.13;77.79
76577;DHT22;65441;44.748;37.600;2023-03-02T01:17:00;0.12;79.56
76577;DHT22;65441;44.748;37.600;2023-03-02T01:19:34;0.22;78.24
76577;DHT22;65441;44.748;37.600;2023-03-02T01:22:11;0.22;76.46
76577;DHT22;65441;44.748;37.600;2023-03-02T01:24:44;0.19;76.53
76577;DHT22;65441;44.748;37.600;2023-03-02T01:27:17;0.19;76.59
76577;DHT22;65441;44.748;37.600;2023-03-02T01:29:52;0.16;77.29
76577;DHT22;65441;44.748;37.600;2023-03-02T01:32:27;0.06;76.82
76577;DHT22;65441;44.748;37.600;2023-03-02T01:35:01;0.15;77.54
76577;DHT22;65441;44.748;37.600;2023-03-02T01:37:35;0.12;77.54
76577;DHT22;65441;44.748;37.600;2023-03-02T01:40:14;0.08;77.86
76577;DHT22;65441;44.748;37.600;2023-03-02T01:42:58;0.04;77.49
76577;DHT22;65441;44.748;37.600;2023-03-02T01:45:52;0.05;77.79
76577;DHT22;65441;44.748;37.600;2023-03-02T01:48:41;-0.01;77.02
76577;DHT22;65441;44.748;37.600;2023-03-02T01:51:22;-0.17;77.28
76577;DHT22;65441;44.748;37.600;2023-03-02T01:54:09;-0.16;77.21
76577;DHT22;65441;44.748;37.600;2023-03-02T01:56:58;-0.30;76.88
76577;DHT22;65441;44.748;37.600;2023-03-02T01:59:39;-0.27;77.47
76577;DHT22;65441;44.748;37.600;2023-03-02T02:02:12;-0.36;77.96
76577;DHT22;65441;44.748;37.600;2023-03-02T02:04:44;-0.31;76.58
76577;DHT22;65441;44.748;37.600;2023-03-02T02:07:25;-0.35;77.33
76577;DHT22;65441;44.748;37.600;2023-03-02T02:10:02;-0.34;77.12
76577;DHT22;65441;44.748;37.600;2023-03-02T02:12:36;-0.30;77.08
76577;DHT22;65441;44.748;37.600;2023-03-02T02:15:14;-0.37;77.21
76577;DHT22;65441;44.748;37.600;2023-03-02T02:17:47;-0.45;77.34
76577;DHT22;65441;44.748;37.600;2023-03-02T02:20:31;-0.44;76.79
76577;DHT22;65441;44.748;37.600;2023-03-02T02:23:20;-0.46;77.28
76577;DHT22;65441;44.748;37.600;2023-03-02T02:26:36;-0.50;76.88
76577;DHT22;65441;44.748;37.600;2023-03-02T02:28:59;-0.59;76.81
76577;DHT22;65441;44.748;37.600;2023-03-02T02:31:39;-0.70;77.51
76577;DHT22;65441;44.748;37.600;2023-03-02T02:34:19;-0.68;77.21
76577;DHT22;65441;44.748;37.600;2023-03-02T02:36:58;-0.65;77.47
76577;DHT22;65441;44.748;37.600;2023-03-02T02:39:36;-0.60;77.25
76577;DHT22;65441;44.748;37.600;2023-03-02T02:42:17;-0.64;76.02
76577;DHT22;65441;44.748;37.600;2023-03-02T02:44:52;-0.85;77.77
76577;DHT22;65441;44.748;37.600;2023-03-02T02:47:29;-0.70;78.02
76577;DHT22;65441;44.748;37.600;2023-03-02T02:50:08;-0.67;77.13
76577;DHT22;65441;44.748;37.600;2023-03-02T02:52:42;-0.81;78.23
76577;DHT22;65441;44.748;37.600;2023-03-02T02:55:23;-0.67;78.27
76577;DHT22;65441;44.748;37.600;2023-03-02T02:58:01;-0.45;78.69
76577;DHT22;65441;44.748;37.600;2023-03-02T03:00:59;-0.44;79.27
76577;DHT22;65441;44.748;37.600;2023-03-02T03:03:35;-0.37;79.48
76577;DHT22;65441;44.748;37.600;2023-03-02T03:06:19;-0.32;78.43
76577;DHT22;65441;44.748;37.600;2023-03-02T03:09:01;-0.22;78.21
76577;DHT22;65441;44.748;37.600;2023-03-02T03:11:43;-0.23;79.09
76577;DHT22;65441;44.748;37.600;2023-03-02T03:14:19;-0.27;79.75
76577;DHT22;65441;44.748;37.600;2023-03-02T03:16:58;-0.28;81.27
76577;DHT22;65441;44.748;37.600;2023-03-02T03:19:30;-0.23;81.44
76577;DHT22;65441;44.748;37.600;2023-03-02T03:22:06;-0.13;81.98
76577;DHT22;65441;44.748;37.600;2023-03-02T03:24:44;-0.08;82.47
76577;DHT22;65441;44.748;37.600;2023-03-02T03:27:20;0.13;81.88
76577;DHT22;65441;44.748;37.600;2023-03-02T03:29:59;0.33;81.39
76577;DHT22;65441;44.748;37.600;2023-03-02T03:32:36;0.49;78.59
76577;DHT22;65441;44.748;37.600;2023-03-02T03:35:12;0.61;78.08
76577;DHT22;65441;44.748;37.600;2023-03-02T03:37:44;0.66;79.22
76577;DHT22;65441;44.748;37.600;2023-03-02T03:40:20;0.79;79.71
76577;DHT22;65441;44.748;37.600;2023-03-02T03:42:54;0.90;81.09
76577;DHT22;65441;44.748;37.600;2023-03-02T03:45:29;0.96;81.41
76577;DHT22;65441;44.748;37.600;2023-03-02T03:48:01;1.05;81.10
76577;DHT22;65441;44.748;37.600;2023-03-02T03:50:41;1.08;80.95
76577;DHT22;65441;44.748;37.600;2023-03-02T03:53:13;1.11;77.86
76577;DHT22;65441;44.748;37.600;2023-03-02T03:55:46;1.10;77.98
76577;DHT22;65441;44.748;37.600;2023-03-02T03:58:18;1.06;78.56
76577;DHT22;65441;44.748;37.600;2023-03-02T04:00:54;1.14;78.66
76577;DHT22;65441;44.748;37.600;2023-03-02T04:03:29;1.24;80.54
76577;DHT22;65441;44.748;37.600;2023-03-02T04:06:05;1.28;79.48
76577;DHT22;65441;44.748;37.600;2023-03-02T04:08:50;1.27;82.78
76577;DHT22;65441;44.748;37.600;2023-03-02T04:11:25;1.25;82.87
76577;DHT22;65441;44.748;37.600;2023-03-02T04:14:00;1.35;83.04
76577;DHT22;65441;44.748;37.600;2023-03-02T04:16:33;1.46;81.36
76577;DHT22;65441;44.748;37.600;2023-03-02T04:19:06;1.38;82.90
76577;DHT22;65441;44.748;37.600;2023-03-02T04:21:43;1.43;82.03
76577;DHT22;65441;44.748;37.600;2023-03-02T04:24:17;1.57;81.22
76577;DHT22;65441;44.748;37.600;2023-03-02T04:26:55;1.68;80.17
76577;DHT22;65441;44.748;37.600;2023-03-02T04:29:27;1.80;80.35
76577;DHT22;65441;44.748;37.600;2023-03-02T04:34:59;1.97;79.47
76577;DHT22;65441;44.748;37.600;2023-03-02T04:37:31;2.06;79.53
76577;DHT22;65441;44.748;37.600;2023-03-02T04:40:07;2.12;80.07
76577;DHT22;65441;44.748;37.600;2023-03-02T04:42:42;2.14;80.41
76577;DHT22;65441;44.748;37.600;2023-03-02T04:45:18;2.25;81.09
76577;DHT22;65441;44.748;37.600;2023-03-02T04:47:48;2.35;79.91
76577;DHT22;65441;44.748;37.600;2023-03-02T04:50:27;2.47;79.73
76577;DHT22;65441;44.748;37.600;2023-03-02T04:53:01;2.54;80.28
76577;DHT22;65441;44.748;37.600;2023-03-02T04:55:35;2.67;79.27
76577;DHT22;65441;44.748;37.600;2023-03-02T04:58:08;3.09;78.89
76577;DHT22;65441;44.748;37.600;2023-03-02T05:00:43;4.44;73.33
76577;DHT22;65441;44.748;37.600;2023-03-02T05:03:13;5.74;69.33
76577;DHT22;65441;44.748;37.600;2023-03-02T05:05:45;6.85;64.31
76577;DHT22;65441;44.748;37.600;2023-03-02T05:08:17;7.75;62.25
76577;DHT22;65441;44.748;37.600;2023-03-02T05:10:46;8.52;59.41
76577;DHT22;65441;44.748;37.600;2023-03-02T05:13:15;8.86;58.19
76577;DHT22;65441;44.748;37.600;2023-03-02T05:15:44;9.14;57.70
76577;DHT22;65441;44.748;37.600;2023-03-02T05:18:13;9.41;56.61
76577;DHT22;65441;44.748;37.600;2023-03-02T05:20:42;9.88;55.38
76577;DHT22;65441;44.748;37.600;2023-03-02T05:23:13;10.55;53.73
76577;DHT22;65441;44.748;37.600;2023-03-02T05:25:53;10.77;52.37
76577;DHT22;65441;44.748;37.600;2023-03-02T05:28:24;10.82;52.42
76577;DHT22;65441;44.748;37.600;2023-03-02T05:30:53;11.00;51.66
76577;DHT22;65441;44.748;37.600;2023-03-02T05:33:22;11.31;51.13
76577;DHT22;65441;44.748;37.600;2023-03-02T05:35:51;11.53;49.50
76577;DHT22;65441;44.748;37.600;2023-03-02T05:38:21;11.77;50.41
76577;DHT22;65441;44.748;37.600;2023-03-02T05:40:50;11.59;51.29
76577;DHT22;65441;44.748;37.600;2023-03-02T05:43:20;11.51;51.67
76577;DHT22;65441;44.748;37.600;2023-03-02T05:45:49;11.61;51.08
76577;DHT22;65441;44.748;37.600;2023-03-02T05:48:18;12.07;49.19
76577;DHT22;65441;44.748;37.600;2023-03-02T05:50:47;12.36;48.88
76577;DHT22;65441;44.748;37.600;2023-03-02T05:53:15;12.74;46.52
76577;DHT22;65441;44.748;37.600;2023-03-02T05:55:46;12.72;46.50
76577;DHT22;65441;44.748;37.600;2023-03-02T05:58:17;13.11;45.50
76577;DHT22;65441;44.748;37.600;2023-03-02T06:00:47;12.71;45.43
76577;DHT22;65441;44.748;37.600;2023-03-02T06:03:16;12.86;46.38
76577;DHT22;65441;44.748;37.600;2023-03-02T06:05:45;13.12;46.99
76577;DHT22;65441;44.748;37.600;2023-03-02T06:08:17;13.23;45.41
76577;DHT22;65441;44.748;37.600;2023-03-02T06:10:47;12.78;47.21
76577;DHT22;65441;44.748;37.600;2023-03-02T06:13:17;12.58;47.79
76577;DHT22;65441;44.748;37.600;2023-03-02T06:15:46;12.66;47.88
76577;DHT22;65441;44.748;37.600;2023-03-02T06:18:15;12.15;49.08
76577;DHT22;65441;44.748;37.600;2023-03-02T06:20:43;11.96;49.05
76577;DHT22;65441;44.748;37.600;2023-03-02T06:23:12;12.06;49.40
76577;DHT22;65441;44.748;37.600;2023-03-02T06:25:41;12.57;50.53
76577;DHT22;65441;44.748;37.600;2023-03-02T06:28:17;12.90;47.83
76577;DHT22;65441;44.748;37.600;2023-03-02T06:30:47;12.40;47.76
76577;DHT22;65441;44.748;37.600;2023-03-02T06:33:18;11.89;50.61
76577;DHT22;65441;44.748;37.600;2023-03-02T06:35:47;11.17;52.04
76577;DHT22;65441;44.748;37.600;2023-03-02T06:38:16;11.15;52.13
76577;DHT22;65441;44.748;37.600;2023-03-02T06:40:45;11.28;52.76
76577;DHT22;65441;44.748;37.600;2023-03-02T06:43:16;11.23;52.01
76577;DHT22;65441;44.748;37.600;2023-03-02T06:45:45;11.04;53.37
76577;DHT22;65441;44.748;37.600;2023-03-02T06:48:14;10.83;53.27
76577;DHT22;65441;44.748;37.600;2023-03-02T06:50:43;10.94;54.56
76577;DHT22;65441;44.748;37.600;2023-03-02T06:53:11;11.08;52.94
76577;DHT22;65441;44.748;37.600;2023-03-02T06:55:41;11.36;52.65
76577;DHT22;65441;44.748;37.600;2023-03-02T06:58:10;11.09;53.86
76577;DHT22;65441;44.748;37.600;2023-03-02T07:00:41;11.30;51.27
76577;DHT22;65441;44.748;37.600;2023-03-02T07:03:09;11.34;52.47
76577;DHT22;65441;44.748;37.600;2023-03-02T07:05:38;11.45;52.18
76577;DHT22;65441;44.748;37.600;2023-03-02T07:08:08;11.53;51.84
76577;DHT22;65441;44.748;37.600;2023-03-02T07:10:36;11.03;51.98
76577;DHT22;65441;44.748;37.600;2023-03-02T07:13:05;11.15;53.07
76577;DHT22;65441;44.748;37.600;2023-03-02T07:15:34;11.51;52.01
76577;DHT22;65441;44.748;37.600;2023-03-02T07:18:04;11.31;48.73
76577;DHT22;65441;44.748;37.600;2023-03-02T07:20:33;11.69;49.66
76577;DHT22;65441;44.748;37.600;2023-03-02T07:23:02;11.43;51.58
76577;DHT22;65441;44.748;37.600;2023-03-02T07:25:31;11.67;51.79
76577;DHT22;65441;44.748;37.600;2023-03-02T07:28:00;11.58;51.82
76577;DHT22;65441;44.748;37.600;2023-03-02T07:30:28;10.99;50.42
76577;DHT22;65441;44.748;37.600;2023-03-02T07:32:57;11.00;51.60
76577;DHT22;65441;44.748;37.600;2023-03-02T07:35:27;11.08;51.08
76577;DHT22;65441;44.748;37.600;2023-03-02T07:37:56;10.98;50.85
76577;DHT22;65441;44.748;37.600;2023-03-02T07:40:25;11.44;52.28
76577;DHT22;65441;44.748;37.600;2023-03-02T07:42:53;11.13;51.04
76577;DHT22;65441;44.748;37.600;2023-03-02T07:45:22;10.84;52.91
76577;DHT22;65441;44.748;37.600;2023-03-02T07:47:52;11.04;48.50
76577;DHT22;65441;44.748;37.600;2023-03-02T07:50:21;11.58;49.13
76577;DHT22;65441;44.748;37.600;2023-03-02T07:52:51;11.75;49.08
76577;DHT22;65441;44.748;37.600;2023-03-02T07:55:19;11.55;49.12
76577;DHT22;65441;44.748;37.600;2023-03-02T07:57:49;10.84;50.60
76577;DHT22;65441;44.748;37.600;2023-03-02T08:00:19;10.64;52.44
76577;DHT22;65441;44.748;37.600;2023-03-02T08:02:48;10.51;52.59
76577;DHT22;65441;44.748;37.600;2023-03-02T08:05:16;10.38;50.99
76577;DHT22;65441;44.748;37.600;2023-03-02T08:07:45;10.36;53.08
76577;DHT22;65441;44.748;37.600;2023-03-02T08:10:16;10.89;51.13
76577;DHT22;65441;44.748;37.600;2023-03-02T08:12:45;11.18;48.03
76577;DHT22;65441;44.748;37.600;2023-03-02T08:15:13;10.78;47.62
76577;DHT22;65441;44.748;37.600;2023-03-02T08:17:42;10.98;49.92
76577;DHT22;65441;44.748;37.600;2023-03-02T08:20:11;11.23;49.08
76577;DHT22;65441;44.748;37.600;2023-03-02T08:22:40;11.44;48.03
76577;DHT22;65441;44.748;37.600;2023-03-02T08:25:08;11.97;47.69
76577;DHT22;65441;44.748;37.600;2023-03-02T08:27:39;12.22;46.37
76577;DHT22;65441;44.748;37.600;2023-03-02T08:30:08;12.57;46.72
76577;DHT22;65441;44.748;37.600;2023-03-02T08:32:39;12.77;45.47
76577;DHT22;65441;44.748;37.600;2023-03-02T08:35:08;12.18;45.87
76577;DHT22;65441;44.748;37.600;2023-03-02T08:37:37;11.48;44.44
76577;DHT22;65441;44.748;37.600;2023-03-02T08:40:06;11.75;45.22
76577;DHT22;65441;44.748;37.600;2023-03-02T08:42:35;11.96;44.87
76577;DHT22;65441;44.748;37.600;2023-03-02T08:45:07;12.11;44.87
76577;DHT22;65441;44.748;37.600;2023-03-02T08:47:36;12.62;43.88
76577;DHT22;65441;44.748;37.600;2023-03-02T08:50:05;12.89;42.79
76577;DHT22;65441;44.748;37.600;2023-03-02T08:52:34;13.08;40.42
76577;DHT22;65441;44.748;37.600;2023-03-02T08:55:03;12.61;42.58
76577;DHT22;65441;44.748;37.600;2023-03-02T08:57:32;12.23;41.94
76577;DHT22;65441;44.748;37.600;2023-03-02T09:00:02;12.27;43.50
76577;DHT22;65441;44.748;37.600;2023-03-02T09:02:36;12.96;41.44
76577;DHT22;65441;44.748;37.600;2023-03-02T09:05:05;13.08;38.90
76577;DHT22;65441;44.748;37.600;2023-03-02T09:07:33;13.22;40.82
76577;DHT22;65441;44.748;37.600;2023-03-02T09:10:03;13.31;42.97
76577;DHT22;65441;44.748;37.600;2023-03-02T09:12:32;13.67;40.26
76577;DHT22;65441;44.748;37.600;2023-03-02T09:15:01;13.56;39.84
76577;DHT22;65441;44.748;37.600;2023-03-02T09:17:29;13.71;40.37
76577;DHT22;65441;44.748;37.600;2023-03-02T09:19:59;13.37;39.32
76577;DHT22;65441;44.748;37.600;2023-03-02T09:22:28;13.34;37.00
76577;DHT22;65441;44.748;37.600;2023-03-02T09:24:57;13.12;39.06
76577;DHT22;65441;44.748;37.600;2023-03-02T09:27:26;13.60;41.66
76577;DHT22;65441;44.748;37.600;2023-03-02T09:29:55;14.04;40.14
76577;DHT22;65441;44.748;37.600;2023-03-02T09:32:24;14.24;37.75
76577;DHT22;65441;44.748;37.600;2023-03-02T09:34:53;14.15;38.65
76577;DHT22;65441;44.748;37.600;2023-03-02T09:37:23;14.19;39.77
76577;DHT22;65441;44.748;37.600;2023-03-02T09:39:52;14.04;38.59
76577;DHT22;65441;44.748;37.600;2023-03-02T09:43:02;14.15;37.91
76577;DHT22;65441;44.748;37.600;2023-03-02T09:45:57;14.35;37.56
76577;DHT22;65441;44.748;37.600;2023-03-02T09:48:34;14.58;36.99
76577;DHT22;65441;44.748;37.600;2023-03-02T09:51:17;14.07;35.84
76577;DHT22;65441;44.748;37.600;2023-03-02T09:53:59;13.89;38.75
76577;DHT22;65441;44.748;37.600;2023-03-02T09:56:33;14.00;37.15
76577;DHT22;65441;44.748;37.600;2023-03-02T09:59:07;13.76;39.26
76577;DHT22;65441;44.748;37.600;2023-03-02T10:01:42;13.67;40.51
76577;DHT22;65441;44.748;37.600;2023-03-02T10:04:18;14.00;38.62
76577;DHT22;65441;44.748;37.600;2023-03-02T10:06:55;14.01;39.06
76577;DHT22;65441;44.748;37.600;2023-03-02T10:09:25;13.59;39.95
76577;DHT22;65441;44.748;37.600;2023-03-02T10:12:11;13.77;39.49
76577;DHT22;65441;44.748;37.600;2023-03-02T10:14:50;13.81;41.25
76577;DHT22;65441;44.748;37.600;2023-03-02T10:17:32;13.94;40.52
76577;DHT22;65441;44.748;37.600;2023-03-02T10:20:07;14.18;39.56
76577;DHT22;65441;44.748;37.600;2023-03-02T10:22:43;14.20;37.21
76577;DHT22;65441;44.748;37.600;2023-03-02T10:25:26;14.12;39.17
76577;DHT22;65441;44.748;37.600;2023-03-02T10:28:15;13.97;38.32
76577;DHT22;65441;44.748;37.600;2023-03-02T10:30:45;13.29;39.79
76577;DHT22;65441;44.748;37.600;2023-03-02T10:33:17;13.97;39.65
76577;DHT22;65441;44.748;37.600;2023-03-02T10:35:48;13.60;41.23
76577;DHT22;65441;44.748;37.600;2023-03-02T10:38:18;13.48;41.22
76577;DHT22;65441;44.748;37.600;2023-03-02T10:40:50;13.84;39.01
76577;DHT22;65441;44.748;37.600;2023-03-02T10:43:32;13.45;39.02
76577;DHT22;65441;44.748;37.600;2023-03-02T10:46:04;13.27;41.44
76577;DHT22;65441;44.748;37.600;2023-03-02T10:48:46;13.10;40.25
76577;DHT22;65441;44.748;37.600;2023-03-02T10:51:26;13.18;40.62
76577;DHT22;65441;44.748;37.600;2023-03-02T10:54:04;13.44;41.12
76577;DHT22;65441;44.748;37.600;2023-03-02T10:56:34;13.47;39.88
76577;DHT22;65441;44.748;37.600;2023-03-02T10:59:13;13.41;40.25
76577;DHT22;65441;44.748;37.600;2023-03-02T11:01:57;13.70;38.88
76577;DHT22;65441;44.748;37.600;2023-03-02T11:04:26;13.50;37.92
76577;DHT22;65441;44.748;37.600;2023-03-02T11:07:07;13.49;38.58
76577;DHT22;65441;44.748;37.600;2023-03-02T11:09:38;13.59;40.07
76577;DHT22;65441;44.748;37.600;2023-03-02T11:12:13;13.64;39.15
76577;DHT22;65441;44.748;37.600;2023-03-02T11:14:43;13.39;39.54
76577;DHT22;65441;44.748;37.600;2023-03-02T11:17:30;13.69;39.94
76577;DHT22;65441;44.748;37.600;2023-03-02T11:20:00;13.77;38.43
76577;DHT22;65441;44.748;37.600;2023-03-02T11:22:35;13.67;38.91
76577;DHT22;65441;44.748;37.600;2023-03-02T11:25:11;13.35;40.12
76577;DHT22;65441;44.748;37.600;2023-03-02T11:27:45;13.32;40.04
76577;DHT22;65441;44.748;37.600;2023-03-02T11:30:16;13.37;40.15
76577;DHT22;65441;44.748;37.600;2023-03-02T11:32:51;13.31;40.00
76577;DHT22;65441;44.748;37.600;2023-03-02T11:35:30;13.47;38.55
76577;DHT22;65441;44.748;37.600;2023-03-02T11:38:16;13.56;38.26
76577;DHT22;65441;44.748;37.600;2023-03-02T11:40:48;13.46;37.51
76577;DHT22;65441;44.748;37.600;2023-03-02T11:43:20;13.21;36.66
76577;DHT22;65441;44.748;37.600;2023-03-02T11:45:55;12.38;38.88
76577;DHT22;65441;44.748;37.600;2023-03-02T11:48:28;12.79;40.86
76577;DHT22;65441;44.748;37.600;2023-03-02T11:51:00;12.50;39.09
76577;DHT22;65441;44.748;37.600;2023-03-02T11:53:47;12.75;39.89
76577;DHT22;65441;44.748;37.600;2023-03-02T11:56:16;12.79;41.75
76577;DHT22;65441;44.748;37.600;2023-03-02T11:58:52;12.99;39.97
76577;DHT22;65441;44.748;37.600;2023-03-02T12:01:24;12.59;40.29
76577;DHT22;65441;44.748;37.600;2023-03-02T12:04:04;12.62;39.77
76577;DHT22;65441;44.748;37.600;2023-03-02T12:06:37;12.53;39.72
76577;DHT22;65441;44.748;37.600;2023-03-02T12:09:09;12.33;41.04
76577;DHT22;65441;44.748;37.600;2023-03-02T12:11:39;12.33;40.51
76577;DHT22;65441;44.748;37.600;2023-03-02T12:14:34;12.63;41.87
76577;DHT22;65441;44.748;37.600;2023-03-02T12:17:20;12.80;40.49
76577;DHT22;65441;44.748;37.600;2023-03-02T12:20:17;12.07;40.78
76577;DHT22;65441;44.748;37.600;2023-03-02T12:22:50;12.21;42.44
76577;DHT22;65441;44.748;37.600;2023-03-02T12:25:35;11.85;41.85
76577;DHT22;65441;44.748;37.600;2023-03-02T12:28:04;12.02;40.14
76577;DHT22;65441;44.748;37.600;2023-03-02T12:30:35;12.11;41.82
76577;DHT22;65441;44.748;37.600;2023-03-02T12:33:17;12.01;41.27
76577;DHT22;65441;44.748;37.600;2023-03-02T12:35:48;11.78;41.11
76577;DHT22;65441;44.748;37.600;2023-03-02T12:38:27;11.89;40.95
76577;DHT22;65441;44.748;37.600;2023-03-02T12:41:21;11.41;41.19
76577;DHT22;65441;44.748;37.600;2023-03-02T12:44:04;11.25;43.42
76577;DHT22;65441;44.748;37.600;2023-03-02T12:46:36;10.94;42.98
76577;DHT22;65441;44.748;37.600;2023-03-02T12:49:45;10.96;43.61
76577;DHT22;65441;44.748;37.600;2023-03-02T12:52:20;11.17;42.79
76577;DHT22;65441;44.748;37.600;2023-03-02T12:54:59;11.10;42.29
76577;DHT22;65441;44.748;37.600;2023-03-02T12:57:28;11.27;43.05
76577;DHT22;65441;44.748;37.600;2023-03-02T13:00:00;11.26;43.40
76577;DHT22;65441;44.748;37.600;2023-03-02T13:02:32;11.25;42.49
76577;DHT22;65441;44.748;37.600;2023-03-02T13:05:03;11.25;42.77
76577;DHT22;65441;44.748;37.600;2023-03-02T13:07:35;11.12;43.38
76577;DHT22;65441;44.748;37.600;2023-03-02T13:10:18;11.00;43.22
76577;DHT22;65441;44.748;37.600;2023-03-02T13:12:48;11.19;45.48
76577;DHT22;65441;44.748;37.600;2023-03-02T13:15:17;11.05;42.34
76577;DHT22;65441;44.748;37.600;2023-03-02T13:17:54;10.75;44.28
76577;DHT22;65441;44.748;37.600;2023-03-02T13:20:25;10.31;44.85
76577;DHT22;65441;44.748;37.600;2023-03-02T13:22:55;10.29;45.20
76577;DHT22;65441;44.748;37.600;2023-03-02T13:25:26;10.22;45.89
76577;DHT22;65441;44.748;37.600;2023-03-02T13:27:57;10.14;45.81
76577;DHT22;65441;44.748;37.600;2023-03-02T13:30:30;9.78;46.24
76577;DHT22;65441;44.748;37.600;2023-03-02T13:33:02;9.46;46.38
76577;DHT22;65441;44.748;37.600;2023-03-02T13:35:34;9.62;46.94
76577;DHT22;65441;44.748;37.600;2023-03-02T13:38:13;9.69;46.04
76577;DHT22;65441;44.748;37.600;2023-03-02T13:40:44;9.60;46.12
76577;DHT22;65441;44.748;37.600;2023-03-02T13:43:34;9.42;46.51
76577;DHT22;65441;44.748;37.600;2023-03-02T13:46:05;9.17;46.57
76577;DHT22;65441;44.748;37.600;2023-03-02T13:48:36;9.36;46.96
76577;DHT22;65441;44.748;37.600;2023-03-02T13:51:14;9.34;45.76
76577;DHT22;65441;44.748;37.600;2023-03-02T13:53:50;9.35;46.06
76577;DHT22;65441;44.748;37.600;2023-03-02T13:56:23;9.36;46.40
76577;DHT22;65441;44.748;37.600;2023-03-02T13:58:54;9.23;46.42
76577;DHT22;65441;44.748;37.600;2023-03-02T14:01:23;9.15;45.36
76577;DHT22;65441;44.748;37.600;2023-03-02T14:03:54;8.92;46.35
76577;DHT22;65441;44.748;37.600;2023-03-02T14:06:23;8.95;46.25
76577;DHT22;65441;44.748;37.600;2023-03-02T14:08:51;8.96;47.09
76577;DHT22;65441;44.748;37.600;2023-03-02T14:11:20;9.06;46.60
76577;DHT22;65441;44.748;37.600;2023-03-02T14:13:52;8.82;47.34
76577;DHT22;65441;44.748;37.600;2023-03-02T14:16:21;8.57;47.62
76577;DHT22;65441;44.748;37.600;2023-03-02T14:18:50;8.45;48.67
76577;DHT22;65441;44.748;37.600;2023-03-02T14:21:23;8.43;49.06
76577;DHT22;65441;44.748;37.600;2023-03-02T14:23:52;8.14;49.18
76577;DHT22;65441;44.748;37.600;2023-03-02T14:26:29;8.13;49.21
76577;DHT22;65441;44.748;37.600;2023-03-02T14:29:00;7.85;50.56
76577;DHT22;65441;44.748;37.600;2023-03-02T14:31:30;7.69;50.47
76577;DHT22;65441;44.748;37.600;2023-03-02T14:33:59;7.46;51.17
76577;DHT22;65441;44.748;37.600;2023-03-02T14:36:32;7.28;52.00
76577;DHT22;65441;44.748;37.600;2023-03-02T14:39:03;7.17;51.69
76577;DHT22;65441;44.748;37.600;2023-03-02T14:41:33;7.12;52.21
76577;DHT22;65441;44.748;37.600;2023-03-02T14:44:04;7.32;51.49
76577;DHT22;65441;44.748;37.600;2023-03-02T14:46:34;7.29;51.52
76577;DHT22;65441;44.748;37.600;2023-03-02T14:49:03;7.19;51.19
76577;DHT22;65441;44.748;37.600;2023-03-02T14:51:35;7.18;50.83
76577;DHT22;65441;44.748;37.600;2023-03-02T14:54:07;7.20;50.95
76577;DHT22;65441;44.748;37.600;2023-03-02T14:56:37;7.20;51.05
76577;DHT22;65441;44.748;37.600;2023-03-02T14:59:07;7.12;51.00
76577;DHT22;65441;44.748;37.600;2023-03-02T15:01:36;7.24;51.01
76577;DHT22;65441;44.748;37.600;2023-03-02T15:04:05;7.22;52.07
76577;DHT22;65441;44.748;37.600;2023-03-02T15:06:37;6.98;51.27
76577;DHT22;65441;44.748;37.600;2023-03-02T15:09:06;6.89;51.99
76577;DHT22;65441;44.748;37.600;2023-03-02T15:11:35;6.83;51.91
76577;DHT22;65441;44.748;37.600;2023-03-02T15:14:04;6.75;52.82
76577;DHT22;65441;44.748;37.600;2023-03-02T15:16:33;6.54;52.49
76577;DHT22;65441;44.748;37.600;2023-03-02T15:19:02;6.49;53.33
76577;DHT22;65441;44.748;37.600;2023-03-02T15:21:31;6.36;54.01
76577;DHT22;65441;44.748;37.600;2023-03-02T15:24:02;6.34;54.18
76577;DHT22;65441;44.748;37.600;2023-03-02T15:26:33;6.33;53.31
76577;DHT22;65441;44.748;37.600;2023-03-02T15:29:02;6.25;53.19
76577;DHT22;65441;44.748;37.600;2023-03-02T15:31:31;6.27;53.42
76577;DHT22;65441;44.748;37.600;2023-03-02T15:34:00;6.13;53.39
76577;DHT22;65441;44.748;37.600;2023-03-02T15:36:29;5.96;53.94
76577;DHT22;65441;44.748;37.600;2023-03-02T15:38:58;5.78;55.03
76577;DHT22;65441;44.748;37.600;2023-03-02T15:41:28;5.77;54.62
76577;DHT22;65441;44.748;37.600;2023-03-02T15:43:57;5.66;55.31
76577;DHT22;65441;44.748;37.600;2023-03-02T15:46:26;5.45;56.97
76577;DHT22;65441;44.748;37.600;2023-03-02T15:48:55;5.46;56.62
76577;DHT22;65441;44.748;37.600;2023-03-02T15:51:24;5.23;57.70
76577;DHT22;65441;44.748;37.600;2023-03-02T15:53:53;5.23;57.88
76577;DHT22;65441;44.748;37.600;2023-03-02T15:56:22;5.33;56.96
76577;DHT22;65441;44.748;37.600;2023-03-02T15:58:55;5.35;57.03
76577;DHT22;65441;44.748;37.600;2023-03-02T16:01:24;5.41;57.65
76577;DHT22;65441;44.748;37.600;2023-03-02T16:03:53;5.27;57.80
76577;DHT22;65441;44.748;37.600;2023-03-02T16:06:22;5.25;57.49